sensor_id;sensor_type;location;lat;lon;timestamp;pressure;altitude;pressure_sealevel;temperature;humidity
1652;BME280;823;49.028;8.454;2023-05-19T00:04:55;100978.84;;;15.96;42.84
1652;BME280;823;49.028;8.454;2023-05-19T00:09:57;100983.56;;;15.88;43.14
1652;BME280;823;49.028;8.454;2023-05-19T00:14:58;100978.88;;;15.75;42.45
1652;BME280;823;49.028;8.454;2023-05-19T00:19:58;100976.25;;;15.75;43.13
1652;BME280;823;49.028;8.454;2023-05-19T00:24:58;100978.25;;;15.70;42.53
1652;BME280;823;49.028;8.454;2023-05-19T00:29:59;100982.88;;;15.63;42.70
1652;BME280;823;49.028;8.454;2023-05-19T00:34:59;100988.28;;;15.59;43.53
1652;BME280;823;49.028;8.454;2023-05-19T00:39:59;100987.59;;;15.55;44.13
1652;BME280;823;49.028;8.454;2023-05-19T00:45:00;100982.72;;;15.47;44.44
1652;BME280;823;49.028;8.454;2023-05-19T00:50:00;100990.28;;;15.33;43.43
1652;BME280;823;49.028;8.454;2023-05-19T00:55:00;100982.09;;;15.22;43.73
1652;BME280;823;49.028;8.454;2023-05-19T01:00:01;100983.78;;;15.23;43.96
1652;BME280;823;49.028;8.454;2023-05-19T01:05:03;100985.16;;;15.11;42.67
1652;BME280;823;49.028;8.454;2023-05-19T01:10:04;100979.03;;;15.12;42.97
1652;BME280;823;49.028;8.454;2023-05-19T01:15:05;100973.09;;;14.88;43.43
1652;BME280;823;49.028;8.454;2023-05-19T01:20:15;100967.16;;;15.05;43.14
1652;BME280;823;49.028;8.454;2023-05-19T01:25:38;100960.22;;;15.05;43.27
1652;BME280;823;49.028;8.454;2023-05-19T01:30:49;100961.06;;;15.06;43.81
1652;BME280;823;49.028;8.454;2023-05-19T01:35:52;100964.56;;;15.05;43.63
1652;BME280;823;49.028;8.454;2023-05-19T01:40:55;100969.06;;;15.01;44.59
1652;BME280;823;49.028;8.454;2023-05-19T01:45:56;100963.13;;;14.77;45.33
1652;BME280;823;49.028;8.454;2023-05-19T01:50:58;100961.63;;;14.71;45.65
1652;BME280;823;49.028;8.454;2023-05-19T01:55:59;100968.00;;;14.64;46.40
1652;BME280;823;49.028;8.454;2023-05-19T02:12:02;100978.94;;;14.28;47.07
1652;BME280;823;49.028;8.454;2023-05-19T02:17:05;100980.63;;;14.29;47.66
1652;BME280;823;49.028;8.454;2023-05-19T02:22:05;100990.63;;;13.94;48.20
1652;BME280;823;49.028;8.454;2023-05-19T02:27:06;100987.50;;;14.08;48.29
1652;BME280;823;49.028;8.454;2023-05-19T02:32:06;100987.91;;;13.97;48.76
1652;BME280;823;49.028;8.454;2023-05-19T02:37:07;100983.00;;;13.89;49.39
1652;BME280;823;49.028;8.454;2023-05-19T02:42:07;100977.91;;;13.86;49.34
1652;BME280;823;49.028;8.454;2023-05-19T02:47:08;100975.47;;;13.82;49.34
1652;BME280;823;49.028;8.454;2023-05-19T02:52:08;100981.13;;;13.69;50.42
1652;BME280;823;49.028;8.454;2023-05-19T02:57:09;100980.91;;;13.75;49.87
1652;BME280;823;49.028;8.454;2023-05-19T03:02:10;100977.84;;;13.64;50.27
1652;BME280;823;49.028;8.454;2023-05-19T03:07:10;100972.66;;;13.64;49.72
1652;BME280;823;49.028;8.454;2023-05-19T03:12:12;100972.28;;;13.50;50.23
1652;BME280;823;49.028;8.454;2023-05-19T03:17:12;100971.06;;;13.60;50.09
1652;BME280;823;49.028;8.454;2023-05-19T03:22:13;100972.66;;;13.64;50.08
1652;BME280;823;49.028;8.454;2023-05-19T03:27:13;100968.03;;;13.49;49.88
1652;BME280;823;49.028;8.454;2023-05-19T03:32:13;100971.41;;;13.51;49.85
1652;BME280;823;49.028;8.454;2023-05-19T03:37:14;100965.56;;;13.44;50.13
1652;BME280;823;49.028;8.454;2023-05-19T03:42:14;100977.66;;;13.45;49.58
1652;BME280;823;49.028;8.454;2023-05-19T03:47:15;100979.50;;;13.41;49.87
1652;BME280;823;49.028;8.454;2023-05-19T03:52:15;100989.91;;;13.41;49.77
1652;BME280;823;49.028;8.454;2023-05-19T03:57:16;100980.53;;;13.37;50.00
1652;BME280;823;49.028;8.454;2023-05-19T04:02:16;100994.31;;;13.39;50.05
1652;BME280;823;49.028;8.454;2023-05-19T04:07:16;100989.25;;;13.36;50.07
1652;BME280;823;49.028;8.454;2023-05-19T04:12:17;100998.84;;;13.33;50.28
1652;BME280;823;49.028;8.454;2023-05-19T04:17:17;100988.38;;;13.36;49.73
1652;BME280;823;49.028;8.454;2023-05-19T04:22:17;100999.81;;;13.30;49.85
1652;BME280;823;49.028;8.454;2023-05-19T04:27:18;100998.06;;;13.31;50.23
1652;BME280;823;49.028;8.454;2023-05-19T04:32:18;100991.78;;;13.38;50.17
1652;BME280;823;49.028;8.454;2023-05-19T04:37:18;101000.09;;;13.48;49.99
1652;BME280;823;49.028;8.454;2023-05-19T04:42:19;101004.44;;;13.47;50.16
1652;BME280;823;49.028;8.454;2023-05-19T04:47:19;101005.25;;;13.49;49.91
1652;BME280;823;49.028;8.454;2023-05-19T04:52:20;101006.56;;;13.61;49.97
1652;BME280;823;49.028;8.454;2023-05-19T04:57:21;101007.88;;;13.73;49.97
1652;BME280;823;49.028;8.454;2023-05-19T05:02:22;101008.59;;;13.76;49.66
1652;BME280;823;49.028;8.454;2023-05-19T05:07:22;101003.91;;;13.86;49.57
1652;BME280;823;49.028;8.454;2023-05-19T05:12:23;101010.63;;;13.92;49.13
1652;BME280;823;49.028;8.454;2023-05-19T05:17:23;101013.00;;;13.98;49.17
1652;BME280;823;49.028;8.454;2023-05-19T05:22:24;101010.63;;;14.16;49.58
1652;BME280;823;49.028;8.454;2023-05-19T05:27:25;101010.88;;;14.31;49.29
1652;BME280;823;49.028;8.454;2023-05-19T05:32:26;101009.81;;;14.37;49.35
1652;BME280;823;49.028;8.454;2023-05-19T05:37:26;101005.19;;;14.44;48.65
1652;BME280;823;49.028;8.454;2023-05-19T05:42:26;101004.59;;;14.37;48.01
1652;BME280;823;49.028;8.454;2023-05-19T05:47:27;101005.19;;;14.44;47.50
1652;BME280;823;49.028;8.454;2023-05-19T05:52:29;100996.25;;;14.51;47.39
1652;BME280;823;49.028;8.454;2023-05-19T05:57:30;100991.81;;;14.53;47.44
1652;BME280;823;49.028;8.454;2023-05-19T06:02:30;100990.38;;;14.68;48.10
1652;BME280;823;49.028;8.454;2023-05-19T06:07:30;100992.38;;;14.84;48.64
1652;BME280;823;49.028;8.454;2023-05-19T06:12:31;100990.94;;;14.97;48.11
1652;BME280;823;49.028;8.454;2023-05-19T06:17:31;100991.66;;;15.21;48.21
1652;BME280;823;49.028;8.454;2023-05-19T06:22:33;100989.44;;;15.32;47.37
1652;BME280;823;49.028;8.454;2023-05-19T06:27:34;100988.22;;;15.41;46.26
1652;BME280;823;49.028;8.454;2023-05-19T06:32:34;100990.84;;;15.60;45.83
1652;BME280;823;49.028;8.454;2023-05-19T06:37:35;100996.81;;;15.83;45.53
1652;BME280;823;49.028;8.454;2023-05-19T06:42:35;100989.34;;;15.94;45.77
1652;BME280;823;49.028;8.454;2023-05-19T06:47:35;101004.78;;;15.99;45.00
1652;BME280;823;49.028;8.454;2023-05-19T06:52:36;100998.72;;;16.37;44.83
1652;BME280;823;49.028;8.454;2023-05-19T06:57:37;100992.88;;;16.49;44.05
1652;BME280;823;49.028;8.454;2023-05-19T07:02:38;100982.47;;;16.66;43.86
1652;BME280;823;49.028;8.454;2023-05-19T07:07:38;100986.34;;;16.77;43.81
1652;BME280;823;49.028;8.454;2023-05-19T07:12:38;100985.44;;;16.95;41.83
1652;BME280;823;49.028;8.454;2023-05-19T07:17:39;100986.88;;;17.18;41.32
1652;BME280;823;49.028;8.454;2023-05-19T07:22:39;100981.25;;;17.26;41.59
1652;BME280;823;49.028;8.454;2023-05-19T07:27:40;100974.81;;;17.49;40.63
1652;BME280;823;49.028;8.454;2023-05-19T07:32:40;100974.50;;;17.56;42.13
1652;BME280;823;49.028;8.454;2023-05-19T07:37:40;100965.75;;;17.73;41.00
1652;BME280;823;49.028;8.454;2023-05-19T07:42:41;100961.97;;;17.78;39.71
1652;BME280;823;49.028;8.454;2023-05-19T07:47:41;100962.47;;;17.85;40.26
1652;BME280;823;49.028;8.454;2023-05-19T07:52:42;100953.97;;;18.13;40.05
1652;BME280;823;49.028;8.454;2023-05-19T07:57:42;100955.41;;;18.35;39.79
1652;BME280;823;49.028;8.454;2023-05-19T08:02:43;100941.53;;;18.33;41.39
1652;BME280;823;49.028;8.454;2023-05-19T08:07:43;100937.72;;;18.38;38.73
1652;BME280;823;49.028;8.454;2023-05-19T08:12:45;100943.66;;;18.57;38.83
1652;BME280;823;49.028;8.454;2023-05-19T08:17:45;100940.09;;;19.04;38.10
1652;BME280;823;49.028;8.454;2023-05-19T08:22:46;100929.03;;;19.28;38.33
1652;BME280;823;49.028;8.454;2023-05-19T08:27:46;100922.66;;;19.46;37.74
1652;BME280;823;49.028;8.454;2023-05-19T08:32:46;100917.41;;;19.46;37.00
1652;BME280;823;49.028;8.454;2023-05-19T08:37:47;100920.28;;;19.56;36.65
1652;BME280;823;49.028;8.454;2023-05-19T08:42:48;100917.84;;;19.67;37.46
1652;BME280;823;49.028;8.454;2023-05-19T08:47:49;100914.22;;;19.55;35.75
1652;BME280;823;49.028;8.454;2023-05-19T08:52:52;100910.66;;;19.56;35.46
1652;BME280;823;49.028;8.454;2023-05-19T08:57:56;100911.84;;;19.65;35.83
1652;BME280;823;49.028;8.454;2023-05-19T09:02:57;100907.16;;;19.70;35.59
1652;BME280;823;49.028;8.454;2023-05-19T09:07:59;100899.00;;;19.75;34.72
1652;BME280;823;49.028;8.454;2023-05-19T09:13:03;100893.13;;;19.99;34.60
1652;BME280;823;49.028;8.454;2023-05-19T09:18:08;100885.38;;;20.37;35.40
1652;BME280;823;49.028;8.454;2023-05-19T09:23:13;100888.16;;;20.62;32.56
1652;BME280;823;49.028;8.454;2023-05-19T09:28:30;100878.53;;;20.88;31.92
1652;BME280;823;49.028;8.454;2023-05-19T09:33:36;100873.16;;;21.02;32.54
1652;BME280;823;49.028;8.454;2023-05-19T09:38:37;100869.66;;;21.15;30.91
1652;BME280;823;49.028;8.454;2023-05-19T09:43:38;100876.28;;;21.20;32.40
1652;BME280;823;49.028;8.454;2023-05-19T09:48:38;100866.97;;;21.40;31.04
1652;BME280;823;49.028;8.454;2023-05-19T09:53:38;100878.56;;;21.38;31.27
1652;BME280;823;49.028;8.454;2023-05-19T09:58:40;100866.53;;;21.47;32.18
1652;BME280;823;49.028;8.454;2023-05-19T10:03:41;100858.84;;;21.06;32.39
1652;BME280;823;49.028;8.454;2023-05-19T10:08:42;100858.50;;;21.24;32.09
1652;BME280;823;49.028;8.454;2023-05-19T10:13:44;100851.28;;;21.52;31.38
1652;BME280;823;49.028;8.454;2023-05-19T10:18:44;100847.00;;;21.38;32.08
1652;BME280;823;49.028;8.454;2023-05-19T10:23:45;100842.97;;;21.58;30.69
1652;BME280;823;49.028;8.454;2023-05-19T10:28:46;100846.00;;;21.65;32.95
1652;BME280;823;49.028;8.454;2023-05-19T10:34:19;100852.09;;;21.89;30.93
1652;BME280;823;49.028;8.454;2023-05-19T10:39:28;100840.38;;;21.93;31.03
1652;BME280;823;49.028;8.454;2023-05-19T10:44:55;100842.06;;;21.94;31.85
1652;BME280;823;49.028;8.454;2023-05-19T10:49:59;100845.03;;;21.90;31.24
1652;BME280;823;49.028;8.454;2023-05-19T10:55:00;100840.25;;;21.71;32.27
1652;BME280;823;49.028;8.454;2023-05-19T11:00:03;100848.16;;;21.71;32.33
1652;BME280;823;49.028;8.454;2023-05-19T11:05:12;100847.88;;;21.63;32.35
1652;BME280;823;49.028;8.454;2023-05-19T11:10:22;100844.25;;;21.52;33.00
1652;BME280;823;49.028;8.454;2023-05-19T11:15:26;100836.03;;;21.81;33.37
1652;BME280;823;49.028;8.454;2023-05-19T11:20:28;100838.00;;;21.90;32.42
1652;BME280;823;49.028;8.454;2023-05-19T11:25:44;100836.34;;;22.01;31.84
1652;BME280;823;49.028;8.454;2023-05-19T11:30:47;100827.22;;;21.93;31.41
1652;BME280;823;49.028;8.454;2023-05-19T11:35:52;100815.63;;;21.72;32.10
1652;BME280;823;49.028;8.454;2023-05-19T11:40:53;100825.34;;;22.07;32.12
1652;BME280;823;49.028;8.454;2023-05-19T11:45:54;100827.56;;;22.24;30.83
1652;BME280;823;49.028;8.454;2023-05-19T11:50:54;100823.44;;;21.85;31.69
1652;BME280;823;49.028;8.454;2023-05-19T11:55:55;100830.09;;;21.90;32.58
1652;BME280;823;49.028;8.454;2023-05-19T12:01:03;100830.31;;;21.63;32.31
1652;BME280;823;49.028;8.454;2023-05-19T12:06:04;100837.97;;;21.66;33.40
1652;BME280;823;49.028;8.454;2023-05-19T12:11:05;100834.13;;;21.59;32.72
1652;BME280;823;49.028;8.454;2023-05-19T12:16:07;100823.19;;;21.76;32.42
1652;BME280;823;49.028;8.454;2023-05-19T12:21:08;100824.69;;;21.68;32.43
1652;BME280;823;49.028;8.454;2023-05-19T12:26:08;100833.00;;;21.37;32.82
1652;BME280;823;49.028;8.454;2023-05-19T12:31:10;100839.75;;;21.29;34.29
1652;BME280;823;49.028;8.454;2023-05-19T12:36:11;100840.44;;;21.06;33.85
1652;BME280;823;49.028;8.454;2023-05-19T12:41:12;100838.22;;;21.00;34.88
1652;BME280;823;49.028;8.454;2023-05-19T12:46:13;100843.78;;;21.08;34.73
1652;BME280;823;49.028;8.454;2023-05-19T12:51:16;100840.09;;;21.11;35.47
1652;BME280;823;49.028;8.454;2023-05-19T12:56:17;100839.03;;;21.14;34.81
1652;BME280;823;49.028;8.454;2023-05-19T13:01:17;100840.47;;;20.94;34.76
1652;BME280;823;49.028;8.454;2023-05-19T13:06:17;100826.56;;;20.66;34.84
1652;BME280;823;49.028;8.454;2023-05-19T13:11:18;100834.75;;;20.74;36.29
1652;BME280;823;49.028;8.454;2023-05-19T13:16:18;100821.31;;;20.79;34.73
1652;BME280;823;49.028;8.454;2023-05-19T13:21:18;100816.06;;;20.79;35.64
1652;BME280;823;49.028;8.454;2023-05-19T13:26:19;100814.78;;;20.97;35.30
1652;BME280;823;49.028;8.454;2023-05-19T13:31:20;100813.09;;;20.83;35.21
1652;BME280;823;49.028;8.454;2023-05-19T13:36:20;100805.63;;;20.90;35.10
1652;BME280;823;49.028;8.454;2023-05-19T13:41:24;100815.28;;;21.02;34.93
1652;BME280;823;49.028;8.454;2023-05-19T13:46:31;100813.63;;;20.88;35.78
1652;BME280;823;49.028;8.454;2023-05-19T13:51:31;100811.00;;;20.88;34.99
1652;BME280;823;49.028;8.454;2023-05-19T13:56:31;100807.31;;;21.04;35.61
1652;BME280;823;49.028;8.454;2023-05-19T14:01:32;100806.88;;;21.10;36.05
1652;BME280;823;49.028;8.454;2023-05-19T14:06:32;100805.25;;;21.20;35.77
1652;BME280;823;49.028;8.454;2023-05-19T14:11:32;100803.28;;;21.11;35.52
1652;BME280;823;49.028;8.454;2023-05-19T14:16:33;100798.13;;;21.09;35.93
1652;BME280;823;49.028;8.454;2023-05-19T14:21:33;100793.28;;;21.16;36.84
1652;BME280;823;49.028;8.454;2023-05-19T14:26:34;100795.16;;;21.27;35.05
1652;BME280;823;49.028;8.454;2023-05-19T14:31:34;100779.78;;;21.34;35.42
1652;BME280;823;49.028;8.454;2023-05-19T14:36:35;100799.19;;;21.07;35.54
1652;BME280;823;49.028;8.454;2023-05-19T14:41:35;100785.25;;;20.94;35.79
1652;BME280;823;49.028;8.454;2023-05-19T14:46:35;100778.66;;;21.12;35.17
1652;BME280;823;49.028;8.454;2023-05-19T14:51:36;100776.69;;;21.03;35.47
1652;BME280;823;49.028;8.454;2023-05-19T14:56:36;100783.84;;;21.01;35.89
1652;BME280;823;49.028;8.454;2023-05-19T15:01:36;100788.91;;;20.91;35.90
1652;BME280;823;49.028;8.454;2023-05-19T15:06:36;100788.31;;;20.62;35.63
1652;BME280;823;49.028;8.454;2023-05-19T15:11:37;100788.19;;;20.63;36.42
1652;BME280;823;49.028;8.454;2023-05-19T15:16:37;100789.59;;;20.69;36.04
1652;BME280;823;49.028;8.454;2023-05-19T15:21:37;100773.69;;;20.70;35.71
1652;BME280;823;49.028;8.454;2023-05-19T15:26:38;100788.31;;;20.74;36.62
1652;BME280;823;49.028;8.454;2023-05-19T15:31:39;100784.38;;;20.93;35.84
1652;BME280;823;49.028;8.454;2023-05-19T15:36:39;100780.63;;;20.84;36.65
1652;BME280;823;49.028;8.454;2023-05-19T15:41:39;100780.41;;;20.87;35.38
1652;BME280;823;49.028;8.454;2023-05-19T15:46:40;100772.94;;;20.94;35.16
1652;BME280;823;49.028;8.454;2023-05-19T15:51:40;100772.09;;;20.94;36.08
1652;BME280;823;49.028;8.454;2023-05-19T15:56:40;100769.72;;;21.15;35.54
1652;BME280;823;49.028;8.454;2023-05-19T16:01:41;100754.53;;;21.18;35.53
1652;BME280;823;49.028;8.454;2023-05-19T16:06:41;100760.25;;;21.12;35.96
1652;BME280;823;49.028;8.454;2023-05-19T16:11:42;100754.00;;;21.02;35.66
1652;BME280;823;49.028;8.454;2023-05-19T16:16:42;100749.97;;;20.96;35.51
1652;BME280;823;49.028;8.454;2023-05-19T16:21:43;100743.38;;;20.90;35.82
1652;BME280;823;49.028;8.454;2023-05-19T16:26:43;100735.72;;;20.87;36.15
1652;BME280;823;49.028;8.454;2023-05-19T16:31:44;100728.75;;;20.99;36.07
1652;BME280;823;49.028;8.454;2023-05-19T16:36:44;100729.16;;;21.06;36.36
1652;BME280;823;49.028;8.454;2023-05-19T16:41:44;100724.50;;;21.09;36.05
1652;BME280;823;49.028;8.454;2023-05-19T16:46:45;100717.13;;;21.15;35.56
1652;BME280;823;49.028;8.454;2023-05-19T16:51:45;100711.91;;;21.02;36.79
1652;BME280;823;49.028;8.454;2023-05-19T16:56:45;100707.03;;;21.08;35.88
1652;BME280;823;49.028;8.454;2023-05-19T17:01:46;100701.56;;;21.12;35.97
1652;BME280;823;49.028;8.454;2023-05-19T17:06:46;100705.75;;;21.14;36.30
1652;BME280;823;49.028;8.454;2023-05-19T17:11:47;100708.28;;;21.16;35.94
1652;BME280;823;49.028;8.454;2023-05-19T17:16:47;100717.88;;;21.04;36.94
1652;BME280;823;49.028;8.454;2023-05-19T17:21:48;100713.69;;;21.01;36.56
1652;BME280;823;49.028;8.454;2023-05-19T17:26:48;100707.25;;;21.05;36.17
1652;BME280;823;49.028;8.454;2023-05-19T17:31:48;100708.31;;;21.03;37.13
1652;BME280;823;49.028;8.454;2023-05-19T17:36:49;100707.09;;;20.96;36.93
1652;BME280;823;49.028;8.454;2023-05-19T17:41:49;100701.00;;;20.95;37.39
1652;BME280;823;49.028;8.454;2023-05-19T17:46:49;100703.34;;;20.87;37.53
1652;BME280;823;49.028;8.454;2023-05-19T17:51:50;100700.69;;;20.87;37.48
1652;BME280;823;49.028;8.454;2023-05-19T17:56:51;100699.34;;;20.81;38.51
1652;BME280;823;49.028;8.454;2023-05-19T18:01:52;100689.66;;;20.82;38.30
1652;BME280;823;49.028;8.454;2023-05-19T18:06:53;100692.53;;;20.79;38.24
1652;BME280;823;49.028;8.454;2023-05-19T18:11:55;100695.47;;;20.74;38.41
1652;BME280;823;49.028;8.454;2023-05-19T18:16:55;100693.28;;;20.68;38.37
1652;BME280;823;49.028;8.454;2023-05-19T18:21:56;100693.47;;;20.65;38.73
1652;BME280;823;49.028;8.454;2023-05-19T18:26:56;100690.72;;;20.66;38.41
1652;BME280;823;49.028;8.454;2023-05-19T18:31:56;100683.78;;;20.65;38.66
1652;BME280;823;49.028;8.454;2023-05-19T18:36:57;100683.38;;;20.58;38.14
1652;BME280;823;49.028;8.454;2023-05-19T18:41:57;100682.66;;;20.56;38.58
1652;BME280;823;49.028;8.454;2023-05-19T18:46:58;100680.44;;;20.50;38.39
1652;BME280;823;49.028;8.454;2023-05-19T18:51:58;100679.97;;;20.45;39.71
1652;BME280;823;49.028;8.454;2023-05-19T18:56:59;100680.47;;;20.37;39.40
1652;BME280;823;49.028;8.454;2023-05-19T19:02:00;100685.31;;;20.31;40.71
1652;BME280;823;49.028;8.454;2023-05-19T19:07:00;100681.44;;;20.23;40.92
1652;BME280;823;49.028;8.454;2023-05-19T19:12:00;100682.59;;;20.19;41.22
1652;BME280;823;49.028;8.454;2023-05-19T19:17:01;100683.03;;;20.13;41.47
1652;BME280;823;49.028;8.454;2023-05-19T19:22:01;100676.50;;;20.06;41.82
1652;BME280;823;49.028;8.454;2023-05-19T19:27:02;100687.31;;;20.01;43.05
1652;BME280;823;49.028;8.454;2023-05-19T19:32:03;100691.19;;;19.96;42.78
1652;BME280;823;49.028;8.454;2023-05-19T19:37:03;100688.91;;;19.91;43.34
1652;BME280;823;49.028;8.454;2023-05-19T19:42:04;100686.78;;;19.83;43.31
1652;BME280;823;49.028;8.454;2023-05-19T19:47:04;100700.19;;;19.79;42.97
1652;BME280;823;49.028;8.454;2023-05-19T19:52:07;100687.34;;;19.74;43.75
1652;BME280;823;49.028;8.454;2023-05-19T19:57:08;100690.19;;;19.71;43.79
1652;BME280;823;49.028;8.454;2023-05-19T20:02:08;100702.66;;;19.67;43.62
1652;BME280;823;49.028;8.454;2023-05-19T20:07:08;100694.91;;;19.66;43.92
1652;BME280;823;49.028;8.454;2023-05-19T20:12:09;100694.47;;;19.59;43.77
1652;BME280;823;49.028;8.454;2023-05-19T20:17:09;100692.91;;;19.56;44.21
1652;BME280;823;49.028;8.454;2023-05-19T20:22:09;100682.50;;;19.55;45.11
1652;BME280;823;49.028;8.454;2023-05-19T20:27:10;100687.13;;;19.51;44.63
1652;BME280;823;49.028;8.454;2023-05-19T20:32:11;100679.34;;;19.50;44.59
1652;BME280;823;49.028;8.454;2023-05-19T20:37:11;100679.56;;;19.47;44.50
1652;BME280;823;49.028;8.454;2023-05-19T20:42:12;100678.91;;;19.43;44.61
1652;BME280;823;49.028;8.454;2023-05-19T20:47:13;100660.84;;;19.38;44.13
1652;BME280;823;49.028;8.454;2023-05-19T20:52:16;100667.16;;;19.36;44.86
1652;BME280;823;49.028;8.454;2023-05-19T20:57:17;100664.06;;;19.29;45.43
1652;BME280;823;49.028;8.454;2023-05-19T21:02:17;100677.56;;;19.23;45.56
1652;BME280;823;49.028;8.454;2023-05-19T21:07:17;100670.00;;;19.18;45.82
1652;BME280;823;49.028;8.454;2023-05-19T21:12:18;100663.19;;;19.16;46.67
1652;BME280;823;49.028;8.454;2023-05-19T21:17:22;100665.06;;;19.14;46.56
1652;BME280;823;49.028;8.454;2023-05-19T21:22:23;100656.56;;;19.10;46.67
1652;BME280;823;49.028;8.454;2023-05-19T21:27:23;100652.44;;;19.06;47.05
1652;BME280;823;49.028;8.454;2023-05-19T21:32:24;100663.06;;;18.76;47.38
1652;BME280;823;49.028;8.454;2023-05-19T21:37:24;100663.75;;;18.79;46.75
1652;BME280;823;49.028;8.454;2023-05-19T21:42:25;100662.50;;;18.85;47.62
1652;BME280;823;49.028;8.454;2023-05-19T21:47:25;100648.75;;;18.81;47.28
1652;BME280;823;49.028;8.454;2023-05-19T21:52:26;100657.94;;;18.74;47.97
1652;BME280;823;49.028;8.454;2023-05-19T21:57:26;100648.13;;;18.63;48.28
1652;BME280;823;49.028;8.454;2023-05-19T22:02:26;100637.84;;;18.60;47.92
1652;BME280;823;49.028;8.454;2023-05-19T22:07:27;100647.09;;;18.66;47.62
1652;BME280;823;49.028;8.454;2023-05-19T22:12:27;100643.91;;;18.61;48.04
1652;BME280;823;49.028;8.454;2023-05-19T22:17:28;100645.59;;;18.62;47.82
1652;BME280;823;49.028;8.454;2023-05-19T22:22:28;100633.84;;;18.54;48.11
1652;BME280;823;49.028;8.454;2023-05-19T22:27:29;100627.47;;;18.59;48.06
1652;BME280;823;49.028;8.454;2023-05-19T22:32:29;100627.47;;;18.59;47.66
1652;BME280;823;49.028;8.454;2023-05-19T22:37:31;100622.44;;;18.55;48.37
1652;BME280;823;49.028;8.454;2023-05-19T22:42:31;100627.78;;;18.54;48.59
1652;BME280;823;49.028;8.454;2023-05-19T22:47:31;100619.97;;;18.52;48.63
1652;BME280;823;49.028;8.454;2023-05-19T22:52:32;100624.69;;;18.47;48.69
1652;BME280;823;49.028;8.454;2023-05-19T22:57:32;100626.44;;;18.47;49.18
1652;BME280;823;49.028;8.454;2023-05-19T23:02:32;100618.88;;;18.42;49.30
1652;BME280;823;49.028;8.454;2023-05-19T23:07:33;100611.97;;;18.41;49.32
1652;BME280;823;49.028;8.454;2023-05-19T23:12:33;100606.72;;;18.41;49.24
1652;BME280;823;49.028;8.454;2023-05-19T23:17:34;100606.09;;;18.37;49.28
1652;BME280;823;49.028;8.454;2023-05-19T23:22:34;100606.19;;;18.36;49.91
1652;BME280;823;49.028;8.454;2023-05-19T23:27:35;100605.63;;;18.31;50.71
1652;BME280;823;49.028;8.454;2023-05-19T23:32:35;100610.00;;;18.30;50.61
1652;BME280;823;49.028;8.454;2023-05-19T23:37:36;100600.94;;;18.21;50.67
1652;BME280;823;49.028;8.454;2023-05-19T23:42:36;100598.13;;;18.25;49.79
1652;BME280;823;49.028;8.454;2023-05-19T23:47:36;100607.13;;;18.20;49.69
1652;BME280;823;49.028;8.454;2023-05-19T23:52:37;100609.00;;;18.18;49.98
1652;BME280;823;49.028;8.454;2023-05-19T23:57:37;100607.59;;;18.13;50.42
